createdAt,value
2023-05-19T00:02:51.138Z,50.31
2023-05-19T00:05:55.972Z,50.36
2023-05-19T00:09:01.256Z,50.58
2023-05-19T00:12:05.124Z,50.33
2023-05-19T00:15:11.850Z,50.39
2023-05-19T00:18:16.751Z,50.24
2023-05-19T00:21:20.102Z,50.02
2023-05-19T00:24:23.312Z,50.27
2023-05-19T00:27:26.713Z,49.84
2023-05-19T00:30:31.763Z,50.08
2023-05-19T00:33:35.455Z,49.93
2023-05-19T00:36:38.695Z,50.48
2023-05-19T00:39:41.968Z,50.19
2023-05-19T00:45:49.785Z,49.99
2023-05-19T00:48:53.439Z,49.91
2023-05-19T00:51:57.561Z,49.94
2023-05-19T00:55:01.376Z,50.24
2023-05-19T00:58:06.088Z,50.35
2023-05-19T01:01:12.415Z,50.12
2023-05-19T01:04:17.349Z,50.00
2023-05-19T01:07:21.445Z,49.93
2023-05-19T01:10:24.873Z,50.01
2023-05-19T01:13:30.670Z,49.62
2023-05-19T01:16:41.540Z,49.98
2023-05-19T01:19:57.530Z,49.98
2023-05-19T01:23:36.956Z,50.07
2023-05-19T01:27:24.262Z,50.26
2023-05-19T01:30:35.189Z,49.72
2023-05-19T01:33:41.106Z,50.10
2023-05-19T01:36:45.979Z,49.81
2023-05-19T01:39:50.353Z,49.80
2023-05-19T01:42:57.392Z,50.16
2023-05-19T01:46:03.790Z,50.18
2023-05-19T01:49:07.781Z,50.41
2023-05-19T01:52:11.066Z,49.98
2023-05-19T01:55:14.514Z,49.93
2023-05-19T01:58:24.043Z,50.08
2023-05-19T02:01:35.421Z,50.57
2023-05-19T02:04:45.472Z,50.33
2023-05-19T02:07:59.307Z,49.82
2023-05-19T02:11:09.339Z,50.12
2023-05-19T02:14:17.519Z,49.84
2023-05-19T02:17:24.628Z,50.32
2023-05-19T02:20:28.074Z,50.32
2023-05-19T02:23:31.331Z,49.75
2023-05-19T02:26:34.472Z,49.92
2023-05-19T02:29:37.655Z,49.87
2023-05-19T02:32:42.175Z,49.91
2023-05-19T02:35:45.380Z,49.88
2023-05-19T02:38:50.310Z,50.37
2023-05-19T02:41:53.409Z,50.22
2023-05-19T02:44:56.803Z,50.18
2023-05-19T02:48:01.527Z,49.59
2023-05-19T02:51:05.445Z,49.75
2023-05-19T02:54:08.604Z,50.00
2023-05-19T02:57:12.032Z,50.06
2023-05-19T03:00:16.233Z,49.99
2023-05-19T03:03:20.855Z,50.02
2023-05-19T03:06:24.465Z,49.84
2023-05-19T03:09:27.579Z,50.15
2023-05-19T03:12:31.775Z,49.82
2023-05-19T03:15:35.353Z,49.86
2023-05-19T03:18:40.007Z,50.00
2023-05-19T03:21:43.103Z,50.14
2023-05-19T03:24:46.284Z,50.28
2023-05-19T03:27:49.492Z,50.22
2023-05-19T03:30:52.658Z,51.01
2023-05-19T03:33:57.978Z,50.52
2023-05-19T03:37:01.060Z,50.54
2023-05-19T03:40:05.769Z,51.04
2023-05-19T03:43:09.198Z,50.70
2023-05-19T03:46:12.348Z,50.84
2023-05-19T03:49:17.032Z,50.53
2023-05-19T03:52:20.256Z,50.74
2023-05-19T03:55:23.500Z,51.43
2023-05-19T03:58:26.867Z,49.65
2023-05-19T04:01:30.101Z,49.11
2023-05-19T04:04:34.807Z,48.88
2023-05-19T04:07:37.994Z,48.83
2023-05-19T04:10:41.313Z,49.73
2023-05-19T04:13:45.254Z,49.35
2023-05-19T04:16:48.591Z,49.40
2023-05-19T04:19:53.187Z,48.33
2023-05-19T04:22:56.331Z,48.34
2023-05-19T04:26:00.614Z,48.63
2023-05-19T04:29:04.952Z,48.69
2023-05-19T04:32:08.546Z,48.20
2023-05-19T04:35:13.804Z,48.53
2023-05-19T04:38:19.072Z,48.67
2023-05-19T04:41:23.127Z,47.08
2023-05-19T04:44:26.349Z,48.08
2023-05-19T04:47:30.231Z,47.79
2023-05-19T04:50:35.530Z,47.92
2023-05-19T04:53:40.375Z,47.86
2023-05-19T04:56:43.877Z,47.61
2023-05-19T04:59:47.375Z,47.33
2023-05-19T05:02:51.039Z,47.22
2023-05-19T05:05:56.854Z,47.38
2023-05-19T05:09:00.778Z,47.18
2023-05-19T05:12:04.817Z,47.15
2023-05-19T05:15:09.319Z,47.16
2023-05-19T05:18:13.256Z,47.27
2023-05-19T05:21:18.422Z,47.04
2023-05-19T05:24:22.214Z,47.44
2023-05-19T05:27:25.392Z,47.21
2023-05-19T05:30:28.509Z,47.28
2023-05-19T05:33:31.706Z,47.06
2023-05-19T05:36:36.311Z,47.25
2023-05-19T05:39:39.471Z,47.13
2023-05-19T05:42:43.009Z,47.06
2023-05-19T05:45:46.307Z,46.89
2023-05-19T05:48:50.284Z,46.61
2023-05-19T05:52:05.480Z,46.82
2023-05-19T05:55:10.926Z,47.22
2023-05-19T05:58:14.927Z,46.87
2023-05-19T06:01:24.192Z,47.01
2023-05-19T06:04:27.377Z,46.60
2023-05-19T06:07:32.003Z,46.79
2023-05-19T06:10:35.745Z,46.80
2023-05-19T06:13:41.463Z,46.56
2023-05-19T06:16:44.650Z,46.89
2023-05-19T06:19:48.248Z,47.39
2023-05-19T06:22:53.044Z,47.07
2023-05-19T06:25:56.402Z,47.02
2023-05-19T06:28:59.587Z,47.28
2023-05-19T06:32:02.825Z,47.25
2023-05-19T06:35:06.935Z,47.54
2023-05-19T06:38:11.546Z,47.71
2023-05-19T06:41:14.910Z,47.63
2023-05-19T06:44:20.437Z,48.54
2023-05-19T06:47:24.275Z,47.07
2023-05-19T06:50:27.725Z,46.95
2023-05-19T06:53:32.404Z,46.76
2023-05-19T06:56:36.535Z,46.55
2023-05-19T06:59:40.970Z,46.55
2023-05-19T07:02:44.313Z,46.38
2023-05-19T07:05:48.137Z,45.75
2023-05-19T07:08:52.715Z,45.81
2023-05-19T07:11:56.619Z,45.84
2023-05-19T07:14:59.808Z,45.43
2023-05-19T07:18:03.061Z,45.54
2023-05-19T07:21:07.384Z,45.71
2023-05-19T07:24:11.969Z,45.34
2023-05-19T07:27:15.503Z,45.45
2023-05-19T07:30:18.675Z,45.95
2023-05-19T07:33:21.850Z,45.68
2023-05-19T07:36:25.102Z,46.03
2023-05-19T07:39:29.918Z,45.53
2023-05-19T07:42:33.116Z,44.19
2023-05-19T07:45:36.414Z,42.14
2023-05-19T07:48:39.646Z,41.71
2023-05-19T07:51:43.019Z,41.28
2023-05-19T07:54:47.704Z,40.84
2023-05-19T07:57:51.025Z,41.24
2023-05-19T08:00:54.162Z,40.93
2023-05-19T08:03:57.905Z,40.71
2023-05-19T08:07:01.138Z,40.05
2023-05-19T08:10:06.314Z,40.57
2023-05-19T08:13:09.428Z,40.42
2023-05-19T08:16:12.648Z,40.53
2023-05-19T08:19:15.996Z,41.07
2023-05-19T08:22:19.208Z,42.05
2023-05-19T08:25:23.781Z,41.91
2023-05-19T08:28:27.058Z,41.43
2023-05-19T08:31:30.532Z,41.51
2023-05-19T08:34:33.772Z,42.07
2023-05-19T08:37:38.767Z,42.31
2023-05-19T08:40:44.134Z,42.86
2023-05-19T08:43:47.376Z,43.61
2023-05-19T08:46:51.250Z,43.50
2023-05-19T08:50:07.781Z,43.10
2023-05-19T08:53:31.880Z,42.85
2023-05-19T08:56:39.546Z,42.60
2023-05-19T08:59:44.906Z,42.23
2023-05-19T09:03:00.283Z,42.17
2023-05-19T09:06:09.657Z,42.04
2023-05-19T09:09:13.129Z,41.95
2023-05-19T09:12:17.669Z,41.60
2023-05-19T09:15:20.770Z,41.62
2023-05-19T09:18:25.753Z,42.77
2023-05-19T09:21:31.621Z,42.41
2023-05-19T09:24:36.093Z,41.65
2023-05-19T09:27:40.578Z,41.58
2023-05-19T09:30:43.774Z,40.92
2023-05-19T09:33:46.892Z,42.68
2023-05-19T09:36:50.909Z,42.84
2023-05-19T09:39:54.668Z,42.14
2023-05-19T09:42:59.180Z,41.83
2023-05-19T09:46:04.963Z,41.98
2023-05-19T09:49:10.771Z,43.20
2023-05-19T09:52:17.882Z,42.70
2023-05-19T09:55:23.262Z,42.04
2023-05-19T09:58:28.288Z,41.92
2023-05-19T10:01:33.717Z,43.16
2023-05-19T10:04:37.594Z,42.81
2023-05-19T10:07:42.181Z,42.00
2023-05-19T10:10:48.127Z,42.34
2023-05-19T10:13:53.447Z,43.45
2023-05-19T10:16:58.247Z,42.96
2023-05-19T10:20:02.419Z,42.53
2023-05-19T10:23:05.579Z,42.65
2023-05-19T10:26:10.037Z,43.16
2023-05-19T10:29:18.727Z,43.10
2023-05-19T10:32:28.159Z,42.13
2023-05-19T10:36:10.968Z,42.55
2023-05-19T10:39:19.149Z,43.50
2023-05-19T10:42:33.442Z,43.07
2023-05-19T10:45:43.373Z,42.83
2023-05-19T10:48:47.510Z,43.13
2023-05-19T10:51:50.982Z,43.70
2023-05-19T10:54:54.888Z,43.48
2023-05-19T10:57:58.381Z,42.33
2023-05-19T11:01:03.327Z,43.01
2023-05-19T11:04:08.110Z,44.12
2023-05-19T11:07:11.470Z,43.36
2023-05-19T11:10:14.837Z,42.56
2023-05-19T11:13:23.159Z,43.00
2023-05-19T11:16:32.787Z,43.93
2023-05-19T11:19:37.436Z,43.09
2023-05-19T11:22:41.395Z,43.33
2023-05-19T11:25:47.162Z,43.55
2023-05-19T11:28:50.845Z,44.33
2023-05-19T11:31:56.043Z,43.46
2023-05-19T11:34:59.269Z,43.14
2023-05-19T11:38:03.272Z,43.24
2023-05-19T11:41:06.611Z,44.61
2023-05-19T11:44:12.428Z,44.83
2023-05-19T11:47:17.725Z,44.07
2023-05-19T11:50:21.347Z,44.07
2023-05-19T11:53:25.079Z,44.08
2023-05-19T11:56:28.185Z,43.82
2023-05-19T11:59:33.445Z,43.91
2023-05-19T12:02:40.161Z,43.57
2023-05-19T12:05:46.063Z,43.36
2023-05-19T12:08:52.564Z,43.50
2023-05-19T12:11:56.694Z,43.29
2023-05-19T12:14:59.852Z,43.01
2023-05-19T12:18:04.796Z,42.45
2023-05-19T12:21:08.142Z,42.85
2023-05-19T12:24:11.331Z,42.51
2023-05-19T12:27:19.633Z,44.20
2023-05-19T12:30:28.688Z,44.87
2023-05-19T12:33:35.673Z,46.51
2023-05-19T12:36:39.527Z,47.05
2023-05-19T12:39:43.945Z,47.36
2023-05-19T12:42:48.746Z,47.44
2023-05-19T12:45:52.466Z,47.85
2023-05-19T12:49:00.832Z,48.11
2023-05-19T12:52:07.092Z,48.30
2023-05-19T12:55:14.412Z,48.18
2023-05-19T12:58:17.822Z,48.47
2023-05-19T13:01:21.094Z,48.17
2023-05-19T13:04:26.364Z,49.50
2023-05-19T13:07:29.734Z,49.22
2023-05-19T13:10:33.332Z,49.17
2023-05-19T13:13:37.130Z,48.76
2023-05-19T13:16:40.340Z,48.81
2023-05-19T13:19:44.981Z,48.70
2023-05-19T13:22:48.839Z,49.44
2023-05-19T13:25:52.913Z,49.01
2023-05-19T13:28:56.022Z,49.03
2023-05-19T13:32:01.186Z,49.74
2023-05-19T13:35:06.969Z,49.26
2023-05-19T13:38:11.207Z,49.17
2023-05-19T13:41:16.003Z,49.95
2023-05-19T13:44:19.367Z,49.69
2023-05-19T13:51:49.983Z,49.98
2023-05-19T13:59:18.920Z,48.13
2023-05-19T14:02:22.181Z,46.82
2023-05-19T14:05:25.441Z,46.06
2023-05-19T14:08:30.014Z,45.97
2023-05-19T14:11:33.356Z,46.42
2023-05-19T14:14:36.642Z,46.75
2023-05-19T14:17:39.909Z,46.61
2023-05-19T14:20:43.118Z,47.04
2023-05-19T14:23:47.736Z,46.52
2023-05-19T14:26:51.233Z,45.43
2023-05-19T14:29:54.322Z,45.09
2023-05-19T14:32:58.111Z,45.04
2023-05-19T14:36:01.833Z,44.54
2023-05-19T14:39:06.587Z,44.59
2023-05-19T14:42:10.594Z,43.79
2023-05-19T14:45:14.188Z,43.57
2023-05-19T14:48:17.672Z,44.17
2023-05-19T14:51:20.988Z,43.49
2023-05-19T14:54:25.605Z,43.43
2023-05-19T14:57:28.773Z,42.53
2023-05-19T15:00:32.268Z,42.81
2023-05-19T15:03:35.932Z,42.80
2023-05-19T15:06:39.195Z,42.79
2023-05-19T15:09:43.878Z,43.21
2023-05-19T15:12:47.082Z,42.73
2023-05-19T15:15:50.424Z,43.15
2023-05-19T15:18:53.721Z,43.69
2023-05-19T15:21:56.955Z,43.52
2023-05-19T15:25:01.625Z,43.74
2023-05-19T15:28:05.190Z,43.60
2023-05-19T15:31:08.843Z,43.95
2023-05-19T15:34:12.088Z,43.63
2023-05-19T15:37:15.517Z,43.53
2023-05-19T15:40:20.648Z,43.55
2023-05-19T15:43:23.775Z,44.12
2023-05-19T15:46:27.442Z,44.14
2023-05-19T15:49:30.676Z,43.87
2023-05-19T15:52:34.081Z,44.15
2023-05-19T15:55:38.756Z,43.94
2023-05-19T15:58:42.554Z,43.59
2023-05-19T16:01:45.757Z,43.59
2023-05-19T16:04:49.083Z,43.98
2023-05-19T16:07:52.605Z,42.11
2023-05-19T16:10:57.475Z,41.84
2023-05-19T16:14:00.626Z,41.38
2023-05-19T16:17:04.020Z,42.66
2023-05-19T16:20:08.520Z,42.87
2023-05-19T16:23:11.917Z,43.07
2023-05-19T16:26:17.001Z,43.42
2023-05-19T16:29:20.117Z,44.04
2023-05-19T16:32:23.707Z,43.72
2023-05-19T16:35:27.947Z,43.67
2023-05-19T16:38:31.140Z,44.28
2023-05-19T16:41:35.717Z,43.95
2023-05-19T16:44:38.866Z,44.21
2023-05-19T16:47:41.934Z,44.55
2023-05-19T16:50:45.276Z,44.16
2023-05-19T16:53:48.759Z,44.21
2023-05-19T16:56:53.726Z,44.58
2023-05-19T16:59:56.820Z,45.56
2023-05-19T17:03:02.119Z,45.35
2023-05-19T17:06:05.321Z,45.20
2023-05-19T17:09:08.550Z,44.53
2023-05-19T17:12:13.470Z,44.94
2023-05-19T17:15:17.025Z,44.88
2023-05-19T17:18:20.136Z,44.59
2023-05-19T17:21:23.238Z,44.59
2023-05-19T17:24:26.399Z,44.62
2023-05-19T17:27:30.945Z,44.77
2023-05-19T17:30:34.705Z,45.16
2023-05-19T17:33:38.171Z,45.13
2023-05-19T17:36:41.592Z,45.44
2023-05-19T17:39:44.700Z,45.83
2023-05-19T17:42:49.184Z,46.43
2023-05-19T17:45:52.541Z,46.47
2023-05-19T17:48:55.714Z,46.21
2023-05-19T17:51:59.390Z,46.10
2023-05-19T17:55:03.120Z,46.53
2023-05-19T17:58:08.225Z,46.60
2023-05-19T18:01:11.824Z,46.05
2023-05-19T18:04:16.252Z,45.75
2023-05-19T18:07:19.554Z,45.63
2023-05-19T18:10:26.727Z,46.06
2023-05-19T18:13:31.250Z,45.37
2023-05-19T18:16:34.579Z,45.89
2023-05-19T18:19:37.762Z,45.86
2023-05-19T18:22:40.860Z,45.87
2023-05-19T18:25:50.557Z,46.58
2023-05-19T18:28:55.117Z,45.76
2023-05-19T18:31:58.304Z,43.70
2023-05-19T18:35:01.447Z,42.24
2023-05-19T18:38:04.654Z,41.65
2023-05-19T18:41:08.080Z,41.92
2023-05-19T18:44:12.757Z,42.15
2023-05-19T18:47:16.260Z,42.25
2023-05-19T18:50:19.485Z,42.53
2023-05-19T18:53:22.875Z,44.90
2023-05-19T18:56:26.461Z,46.20
2023-05-19T18:59:31.082Z,44.93
2023-05-19T19:02:34.398Z,43.87
2023-05-19T19:05:37.577Z,44.24
2023-05-19T19:08:40.753Z,43.76
2023-05-19T19:11:43.876Z,43.72
2023-05-19T19:14:48.441Z,43.20
2023-05-19T19:17:51.678Z,43.14
2023-05-19T19:20:54.975Z,43.19
2023-05-19T19:23:58.691Z,42.91
2023-05-19T19:27:01.839Z,43.25
2023-05-19T19:30:07.693Z,42.88
2023-05-19T19:33:11.252Z,42.86
2023-05-19T19:36:14.459Z,43.01
2023-05-19T19:39:17.638Z,43.65
2023-05-19T19:42:20.864Z,44.63
2023-05-19T19:45:25.354Z,44.61
2023-05-19T19:48:28.786Z,44.37
2023-05-19T19:51:32.443Z,44.96
2023-05-19T19:54:35.679Z,45.01
2023-05-19T19:57:38.798Z,44.51
2023-05-19T20:00:43.304Z,44.36
2023-05-19T20:03:46.530Z,44.46
2023-05-19T20:06:49.850Z,44.49
2023-05-19T20:09:53.384Z,45.14
2023-05-19T20:12:58.869Z,45.39
2023-05-19T20:16:03.646Z,45.53
2023-05-19T20:19:09.196Z,45.56
2023-05-19T20:22:12.656Z,45.26
2023-05-19T20:25:15.955Z,45.70
2023-05-19T20:28:19.301Z,45.39
2023-05-19T20:31:25.939Z,45.21
2023-05-19T20:34:29.109Z,45.03
2023-05-19T20:37:32.306Z,45.33
2023-05-19T20:40:35.506Z,46.00
2023-05-19T20:43:38.656Z,45.74
2023-05-19T20:46:43.169Z,45.84
2023-05-19T20:49:46.625Z,45.43
2023-05-19T20:52:49.700Z,45.44
2023-05-19T20:55:52.895Z,45.34
2023-05-19T20:58:56.293Z,45.23
2023-05-19T21:02:00.912Z,45.25
2023-05-19T21:05:04.516Z,45.68
2023-05-19T21:08:12.968Z,45.87
2023-05-19T21:11:16.825Z,46.10
2023-05-19T21:14:20.040Z,45.84
2023-05-19T21:17:24.537Z,46.09
2023-05-19T21:20:29.257Z,45.89
2023-05-19T21:23:32.405Z,45.69
2023-05-19T21:26:35.626Z,45.77
2023-05-19T21:29:38.767Z,45.53
2023-05-19T21:32:43.451Z,45.80
2023-05-19T21:35:46.900Z,45.20
2023-05-19T21:38:50.262Z,45.26
2023-05-19T21:41:53.375Z,45.10
2023-05-19T21:44:56.684Z,45.17
2023-05-19T21:48:01.296Z,45.32
2023-05-19T21:51:04.583Z,45.27
2023-05-19T21:54:07.712Z,45.17
2023-05-19T21:57:11.251Z,45.46
2023-05-19T22:00:15.298Z,45.07
2023-05-19T22:03:20.230Z,45.05
2023-05-19T22:06:23.418Z,44.87
2023-05-19T22:09:26.552Z,44.95
2023-05-19T22:12:29.694Z,44.83
2023-05-19T22:15:32.872Z,44.86
2023-05-19T22:18:37.444Z,44.56
2023-05-19T22:21:40.587Z,45.13
2023-05-19T22:24:43.863Z,44.31
2023-05-19T22:27:47.000Z,45.40
2023-05-19T22:30:50.149Z,45.27
2023-05-19T22:33:54.747Z,44.58
2023-05-19T22:36:57.988Z,44.59
2023-05-19T22:40:01.193Z,44.28
2023-05-19T22:43:04.376Z,44.31
2023-05-19T22:46:07.516Z,44.60
2023-05-19T22:49:12.089Z,44.15
2023-05-19T22:52:15.181Z,44.24
2023-05-19T22:55:18.335Z,44.07
2023-05-19T22:58:21.568Z,44.28
2023-05-19T23:01:24.818Z,44.19
2023-05-19T23:04:29.644Z,44.03
2023-05-19T23:07:32.826Z,43.94
2023-05-19T23:10:36.030Z,44.24
2023-05-19T23:13:39.134Z,43.88
2023-05-19T23:16:42.313Z,44.02
2023-05-19T23:19:46.959Z,43.97
2023-05-19T23:22:50.096Z,43.83
2023-05-19T23:25:53.247Z,44.14
2023-05-19T23:28:58.647Z,44.12
2023-05-19T23:32:01.883Z,43.92
2023-05-19T23:35:14.201Z,44.39
2023-05-19T23:38:17.540Z,43.95
2023-05-19T23:41:22.472Z,43.82
2023-05-19T23:44:26.436Z,43.99
2023-05-19T23:47:29.517Z,44.17
2023-05-19T23:50:34.190Z,44.17
2023-05-19T23:53:37.300Z,43.51
2023-05-19T23:56:40.380Z,43.77
2023-05-19T23:59:43.484Z,43.90
